KCDC/CDC METAR and TAF weather

Enter ICAO airport designator
Station Type Date Time Source
KCDC METAR 2021/06/24 05:53 UTC NOAA

KCDC 240553Z AUTO 21009KT 10SM SCT080 19/06 A3017 RMK AO2 SLP131 T01940061 10261 20189 50005 $


Station Type Date Time Source
KCDC Decoded METAR 2021/06/24 05:53 UTC NOAA

CEDAR CITY MUN AIRPORT, UT, United States (KCDC) 37-42N 113-06W 1714M
Jun 24, 2021 - 01:53 AM EDT / 2021.06.24 0553 UTC
Wind: from the SSW (210 degrees) at 10 MPH (9 KT):0
Visibility: 10 mile(s):0
Sky conditions: partly cloudy
Temperature: 66.9 F (19.4 C)
Dew Point: 43.0 F (6.1 C)
Relative Humidity: 41%
Pressure (altimeter): 30.17 in. Hg (1021 hPa)
Pressure tendency: 0.01 inches (0.5 hPa) higher than three hours ago
ob: KCDC 240553Z AUTO 21009KT 10SM SCT080 19/06 A3017 RMK AO2 SLP131 T01940061 10261 20189 50005
cycle: 6

Station Type Date Time Source
KCDC TAF 2021/06/24 06:42 UTC NOAA

TAF KCDC 240539Z 2406/2506 21007KT P6SM VCSH SCT100
FM241000 VRB04KT P6SM SCT070 BKN090
FM241800 28012G22KT P6SM VCTS SCT090CB SCT180
FM250500 03007KT P6SM SCT180

Example: see airport list